ADDS METAR Data INFO
IDs: Format: Raw Decoded Include TAF

Data at: 1130 UTC 29 May 2017

METAR for:PAOU (Nelson Lagoon Arpt, AK, US)
Text:PAOU 291124Z AUTO 00000KT 10SM SCT001 03/03 A2983 RMK AO2
Temperature: 3.0°C ( 37°F)
Dewpoint: 3.0°C ( 37°F) [RH = 100%]
Pressure (altimeter):29.83 inches Hg (1010.2 mb)
Winds:calm
Visibility:10 or more sm (16+ km)
Ceiling:at least 12,000 feet AGL
Clouds: scattered clouds at 100 feet AGL
QC Flag:automated observation with no human augmentation
Text:PAOU 291104Z AUTO 34003KT 4SM BR OVC001 02/02 A2983 RMK AO2 FZRANO
Temperature: 2.0°C ( 36°F)
Dewpoint: 2.0°C ( 36°F) [RH = 100%]
Pressure (altimeter):29.83 inches Hg (1010.2 mb)
Winds:from the NNW (340 degrees) at 3 MPH (3 knots; 1.5 m/s)
Visibility: 4 sm ( 6 km)
Ceiling:100 feet AGL
Clouds: overcast cloud deck at 100 feet AGL
Weather:BR (mist)
QC Flag:automated observation with no human augmentation
Text:PAOU 291056Z AUTO 34004KT 2 1/2SM BR OVC001 02/02 A2983 RMK AO2 VIS 1 1/4V5 RAE32UPB32E53 SLP100 P0000 T00220022 FZRANO
Temperature: 2.2°C ( 36°F)
Dewpoint: 2.2°C ( 36°F) [RH = 100%]
Pressure (altimeter):29.83 inches Hg (1010.2 mb) [Sea level pressure: 1010.0 mb]
Winds:from the NNW (340 degrees) at 5 MPH (4 knots; 2.1 m/s)
Visibility: 2.50 sm ( 4.02 km)
Ceiling:100 feet AGL
Clouds: overcast cloud deck at 100 feet AGL
Weather:BR (mist)
QC Flag:automated observation with no human augmentation
Text:PAOU 291040Z AUTO 34003KT 1 1/4SM UP BR OVC001 02/02 A2983 RMK AO2 RAE32UPB32 P0000 FZRANO
Temperature: 2.0°C ( 36°F)
Dewpoint: 2.0°C ( 36°F) [RH = 100%]
Pressure (altimeter):29.83 inches Hg (1010.2 mb)
Winds:from the NNW (340 degrees) at 3 MPH (3 knots; 1.5 m/s)
Visibility: 1.25 sm ( 2.01 km)
Ceiling:100 feet AGL
Clouds: overcast cloud deck at 100 feet AGL
Weather:BR UP (mist, unknown precipitation)
QC Flag:automated observation with no human augmentation
Text:PAOU 291032Z AUTO 33003KT 3/4SM UP BR OVC001 02/02 A2983 RMK AO2 RAE32UPB32 P0000 FZRANO
Temperature: 2.0°C ( 36°F)
Dewpoint: 2.0°C ( 36°F) [RH = 100%]
Pressure (altimeter):29.83 inches Hg (1010.2 mb)
Winds:from the NNW (330 degrees) at 3 MPH (3 knots; 1.5 m/s)
Visibility: 0.75 sm ( 1.21 km)
Ceiling:100 feet AGL
Clouds: overcast cloud deck at 100 feet AGL
Weather:BR UP (mist, unknown precipitation)
QC Flag:automated observation with no human augmentation
Text:PAOU 290956Z AUTO 32003KT 1/2SM -RA FG OVC001 03/03 A2983 RMK AO2 RAB35UPB36E38 SLP100 P0000 T00280028
Temperature: 2.8°C ( 37°F)
Dewpoint: 2.8°C ( 37°F) [RH = 100%]
Pressure (altimeter):29.83 inches Hg (1010.2 mb) [Sea level pressure: 1010.0 mb]
Winds:from the NW (320 degrees) at 3 MPH (3 knots; 1.5 m/s)
Visibility: 0.50 sm ( 0.80 km)
Ceiling:100 feet AGL
Clouds: overcast cloud deck at 100 feet AGL
Weather:-RA FG (light rain, fog)
QC Flag:automated observation with no human augmentation
Text:PAOU 290947Z AUTO 30003KT 3/4SM -RA BR OVC001 03/03 A2983 RMK AO2 RAB35UPB36E38 P0000
Temperature: 3.0°C ( 37°F)
Dewpoint: 3.0°C ( 37°F) [RH = 100%]
Pressure (altimeter):29.83 inches Hg (1010.2 mb)
Winds:from the WNW (300 degrees) at 3 MPH (3 knots; 1.5 m/s)
Visibility: 0.75 sm ( 1.21 km)
Ceiling:100 feet AGL
Clouds: overcast cloud deck at 100 feet AGL
Weather:-RA BR (light rain, mist)
QC Flag:automated observation with no human augmentation
Text:PAOU 290938Z AUTO 31004KT 1SM -RA BR OVC001 03/03 A2983 RMK AO2 VIS 1/2V4 RAB35UPB36E38 P0000
Temperature: 3.0°C ( 37°F)
Dewpoint: 3.0°C ( 37°F) [RH = 100%]
Pressure (altimeter):29.83 inches Hg (1010.2 mb)
Winds:from the NW (310 degrees) at 5 MPH (4 knots; 2.1 m/s)
Visibility: 1.00 sm ( 1.61 km)
Ceiling:100 feet AGL
Clouds: overcast cloud deck at 100 feet AGL
Weather:-RA BR (light rain, mist)
QC Flag:automated observation with no human augmentation
Text:PAOU 290926Z AUTO 32004KT 2SM BR BKN001 03/03 A2982 RMK AO2 VIS 3/4V5
Temperature: 3.0°C ( 37°F)
Dewpoint: 3.0°C ( 37°F) [RH = 100%]
Pressure (altimeter):29.82 inches Hg (1009.9 mb)
Winds:from the NW (320 degrees) at 5 MPH (4 knots; 2.1 m/s)
Visibility: 2.00 sm ( 3.22 km)
Ceiling:100 feet AGL
Clouds: broken clouds at 100 feet AGL
Weather:BR (mist)
QC Flag:automated observation with no human augmentation
Text:PAOU 290920Z AUTO 33004KT 1SM BR VV001 03/03 A2982 RMK AO2 VIS 3/4V2 1/2
Temperature: 3.0°C ( 37°F)
Dewpoint: 3.0°C ( 37°F) [RH = 100%]
Pressure (altimeter):29.82 inches Hg (1009.9 mb)
Winds:from the NNW (330 degrees) at 5 MPH (4 knots; 2.1 m/s)
Visibility: 1.00 sm ( 1.61 km)
Ceiling:indefinite ceiling with vertical visibility of 100 feet AGL
Clouds:obscured sky
Weather:BR (mist)
QC Flag:automated observation with no human augmentation
Text:PAOU 290913Z AUTO 35004KT 2 1/2SM BR FEW001 03/03 A2982 RMK AO2
Temperature: 3.0°C ( 37°F)
Dewpoint: 3.0°C ( 37°F) [RH = 100%]
Pressure (altimeter):29.82 inches Hg (1009.9 mb)
Winds:from the N (350 degrees) at 5 MPH (4 knots; 2.1 m/s)
Visibility: 2.50 sm ( 4.02 km)
Ceiling:at least 12,000 feet AGL
Clouds: few clouds at 100 feet AGL
Weather:BR (mist)
QC Flag:automated observation with no human augmentation
Text:PAOU 290856Z AUTO 34004KT 10SM CLR 04/04 A2983 RMK AO2 SLP100 T00440039 51010
Temperature: 4.4°C ( 40°F)
Dewpoint: 3.9°C ( 39°F) [RH = 97%]
Pressure (altimeter):29.83 inches Hg (1010.2 mb) [Sea level pressure: 1010.0 mb]
Winds:from the NNW (340 degrees) at 5 MPH (4 knots; 2.1 m/s)
Visibility:10 or more sm (16+ km)
Ceiling:at least 12,000 feet AGL
Clouds:sky clear below 12,000 feet AGL
QC Flag:automated observation with no human augmentation
Text:PAOU 290756Z AUTO 36006KT 10SM CLR 04/04 A2982 RMK AO2 SLP096 T00440039 400720039
Temperature: 4.4°C ( 40°F)
Dewpoint: 3.9°C ( 39°F) [RH = 97%]
Pressure (altimeter):29.82 inches Hg (1009.9 mb) [Sea level pressure: 1009.6 mb]
Winds:from the N (360 degrees) at 7 MPH (6 knots; 3.1 m/s)
Visibility:10 or more sm (16+ km)
Ceiling:at least 12,000 feet AGL
Clouds:sky clear below 12,000 feet AGL
QC Flag:automated observation with no human augmentation
Text:PAOU 290656Z AUTO 34006KT 10SM CLR 05/04 A2981 RMK AO2 SLP094 T00500039
Temperature: 5.0°C ( 41°F)
Dewpoint: 3.9°C ( 39°F) [RH = 93%]
Pressure (altimeter):29.81 inches Hg (1009.6 mb) [Sea level pressure: 1009.4 mb]
Winds:from the NNW (340 degrees) at 7 MPH (6 knots; 3.1 m/s)
Visibility:10 or more sm (16+ km)
Ceiling:at least 12,000 feet AGL
Clouds:sky clear below 12,000 feet AGL
QC Flag:automated observation with no human augmentation
Text:PAOU 290556Z AUTO 34007KT 10SM CLR 06/04 A2980 RMK AO2 SLP090 T00560039 10072 20056 53002
Temperature: 5.6°C ( 42°F)
Dewpoint: 3.9°C ( 39°F) [RH = 89%]
Pressure (altimeter):29.80 inches Hg (1009.2 mb) [Sea level pressure: 1009.0 mb]
Winds:from the NNW (340 degrees) at 8 MPH (7 knots; 3.6 m/s)
Visibility:10 or more sm (16+ km)
Ceiling:at least 12,000 feet AGL
Clouds:sky clear below 12,000 feet AGL
QC Flag:automated observation with no human augmentation

TAF for:PAOU (Nelson Lagoon Arpt, AK, US)
Text:No data found


Page loaded:  11:30 UTC  |   04:30 AM Pacific  |   05:30 AM Mountain  |   06:30 AM Central  |   07:30 AM Eastern

 

ADVISORIES

FORECASTS

FORECASTS

OBSERVATIONS

USER TOOLS

ABOUT US